aviador You're here:

SOCA Decoded Metar

CAYENNE in FRENCH GUYANA
Report Time2017-08-22 08:30:00
UTC Time2017-08-22 08:58:27
Flight Rules mvfr MVFR
WindCalm
Visibility9999 m
Phenomena:Shower Rain
Clouds:Few TCU 015 Hf
Expected CloudBase > 400 ft AGL from Temp-Dew spread
Ceiling2,000 ft
Temp25°C (ISA +10)
Dew Point24°C (94% RH)
QNH1013 hPa
Density Alt1,585 ft
Elevation30 ft
Report Wrong Elevation
Raw Report
METAR SOCA 220830Z AUTO 00000KT CAVOK 25/24 Q1013 TEMPO 4000 SHRA FEW015TCU
BKN020=

Extra information for SOCA:More info

Metar Taf Metar & Taf Last 4 Metars F.Rules Stats Wind Profile Meteogram Temp Stats Airport Information Weather charts Add Link Nearby VenuesMetar ALERT Operation Metar Decoded Social comments